Seabourn Odyssey — C6XC6 — position and weather

sailwx.info

Track history (hours):
 
Tides and Currents Weather Stations Pressure Air Temp Water Temp Dewpoint Dewpoint Depression Visibility Wind Speed Wind Dir Waves Ship Positions

Seabourn Odyssey

Last reported at 2020-Jan-13 17:46 UTC. Time now 2020-Jan-19 15:29 UTC.
Position N 17°16' W 062°46'.

Length 198 m; draft 6.7 m.

Type: Ship. MMSI: 309416000.

Date/timePositionNaut miles runAvg speedWind from/ knotsBaromVisibWave heightAir tempDewpointWater temp
2020-Jan-13 17:46N 17°16' W 062°46'38 6.1
2020-Jan-13 11:31N 17°53' W 062°52'2 2.6
2020-Jan-13 10:48N 17°54' W 062°54'24 8.6
2020-Jan-13 07:59N 18°02' W 063°18'14 0.5
2020-Jan-12 02:57N 18°01' W 063°03'0 0.1
2020-Jan-11 23:55N 18°01' W 063°03'0 0.0
2020-Jan-11 22:55N 18°01' W 063°03'0 0.0
2020-Jan-11 22:28N 18°01' W 063°03'0 0.0
2020-Jan-11 21:25N 18°01' W 063°03'0 0.0
2020-Jan-11 20:58N 18°01' W 063°03'0 0.0
2020-Jan-11 16:46N 18°01' W 063°03'0 0.0
2020-Jan-11 10:49N 18°01' W 063°03'19 4.4
2020-Jan-11 06:30N 17°42' W 063°07'34 1.7
2020-Jan-10 10:13N 17°15' W 062°45'17 4.6
2020-Jan-10 06:36N 16°59' W 062°40'214.2
2020-Jan-10 06:29N 16°59' W 062°39'7 0.3
2020-Jan-09 02:30N 16°53' W 062°35'15 0.9
2020-Jan-08 10:41N 17°07' W 062°41'  
Track history (hours):
 
Tides and Currents Weather Stations Pressure Air Temp Water Temp Dewpoint Dewpoint Depression Visibility Wind Speed Wind Dir Waves Ship Positions

Seabourn Odyssey

Last reported at 2020-Jan-13 17:46 UTC. Time now 2020-Jan-19 15:29 UTC.
Position N 17°16' W 062°46'.

Length 198 m; draft 6.7 m.

Type: Ship. MMSI: 309416000.

Date/timePositionNaut miles runAvg speedWind from/ knotsBaromVisibWave heightAir tempDewpointWater temp
2020-Jan-13 17:46N 17°16' W 062°46'38 6.1
2020-Jan-13 11:31N 17°53' W 062°52'2 2.6
2020-Jan-13 10:48N 17°54' W 062°54'24 8.6
2020-Jan-13 07:59N 18°02' W 063°18'14 0.5
2020-Jan-12 02:57N 18°01' W 063°03'0 0.1
2020-Jan-11 23:55N 18°01' W 063°03'0 0.0
2020-Jan-11 22:55N 18°01' W 063°03'0 0.0
2020-Jan-11 22:28N 18°01' W 063°03'0 0.0
2020-Jan-11 21:25N 18°01' W 063°03'0 0.0
2020-Jan-11 20:58N 18°01' W 063°03'0 0.0
2020-Jan-11 16:46N 18°01' W 063°03'0 0.0
2020-Jan-11 10:49N 18°01' W 063°03'19 4.4
2020-Jan-11 06:30N 17°42' W 063°07'34 1.7
2020-Jan-10 10:13N 17°15' W 062°45'17 4.6
2020-Jan-10 06:36N 16°59' W 062°40'214.2
2020-Jan-10 06:29N 16°59' W 062°39'7 0.3
2020-Jan-09 02:30N 16°53' W 062°35'15 0.9
2020-Jan-08 10:41N 17°07' W 062°41'  

Dump ship's entire track history